Carlisle, Texas
Current Conditions -  °F | °C
As of 8:35 AM on Friday 31 Oct 2014 (Local Time) from KDKR Reporting Station
Clear Clear  
Wind Chill: 57°   Ceiling: Unl
Heat Index: 57°   Visibility: 10mi
Dew Point: 52°   Wind: 3mph
Humidity: 82%   Direction: 340°NNW
Pressure: 30.22"   Gusts: NA
Location:  30.9905°N, 95.3368°W
Report Text: KDKR 311335Z AUTO 34003KT 10SM CLR 14/11 A3022 RMK AO2
Loading
Personal Weather Stations






























Interactive Weather Map
Tropical Storm Tracking
New forecast layout! Learn more

10-Day Weather Forecast

Advertisements
Track Severe Weather on mobile